sensor_id;sensor_type;location;lat;lon;timestamp;P1;durP1;ratioP1;P2;durP2;ratioP2
21183;SDS011;18176;49.502;11.754;2022-09-30T00:03:55;9.03;;;5.97;;
21183;SDS011;18176;49.502;11.754;2022-09-30T00:07:53;8.53;;;4.80;;
21183;SDS011;18176;49.502;11.754;2022-09-30T00:11:50;7.07;;;3.83;;
21183;SDS011;18176;49.502;11.754;2022-09-30T00:15:47;6.93;;;4.23;;
21183;SDS011;18176;49.502;11.754;2022-09-30T00:19:44;5.30;;;3.80;;
21183;SDS011;18176;49.502;11.754;2022-09-30T00:23:42;6.00;;;3.40;;
21183;SDS011;18176;49.502;11.754;2022-09-30T00:27:41;6.53;;;3.70;;
21183;SDS011;18176;49.502;11.754;2022-09-30T00:31:38;4.57;;;3.63;;
21183;SDS011;18176;49.502;11.754;2022-09-30T00:35:36;7.07;;;3.80;;
21183;SDS011;18176;49.502;11.754;2022-09-30T00:39:33;4.23;;;3.50;;
21183;SDS011;18176;49.502;11.754;2022-09-30T00:43:42;5.33;;;3.23;;
21183;SDS011;18176;49.502;11.754;2022-09-30T00:47:54;5.37;;;3.53;;
21183;SDS011;18176;49.502;11.754;2022-09-30T00:51:57;8.10;;;3.63;;
21183;SDS011;18176;49.502;11.754;2022-09-30T00:59:58;5.07;;;3.50;;
21183;SDS011;18176;49.502;11.754;2022-09-30T01:04:01;3.93;;;3.50;;
21183;SDS011;18176;49.502;11.754;2022-09-30T01:08:07;4.83;;;3.47;;
21183;SDS011;18176;49.502;11.754;2022-09-30T01:12:06;4.00;;;3.33;;
21183;SDS011;18176;49.502;11.754;2022-09-30T01:25:14;4.97;;;3.40;;
21183;SDS011;18176;49.502;11.754;2022-09-30T01:30:10;6.57;;;3.60;;
21183;SDS011;18176;49.502;11.754;2022-09-30T01:34:36;3.87;;;3.30;;
21183;SDS011;18176;49.502;11.754;2022-09-30T01:47:29;5.97;;;3.60;;
21183;SDS011;18176;49.502;11.754;2022-09-30T01:51:43;4.87;;;3.37;;
21183;SDS011;18176;49.502;11.754;2022-09-30T01:56:12;6.23;;;4.20;;
21183;SDS011;18176;49.502;11.754;2022-09-30T02:00:19;8.23;;;4.03;;
21183;SDS011;18176;49.502;11.754;2022-09-30T02:04:22;7.40;;;3.70;;
21183;SDS011;18176;49.502;11.754;2022-09-30T02:08:50;6.27;;;3.40;;
21183;SDS011;18176;49.502;11.754;2022-09-30T02:13:04;6.03;;;3.83;;
21183;SDS011;18176;49.502;11.754;2022-09-30T02:17:13;6.20;;;3.93;;
21183;SDS011;18176;49.502;11.754;2022-09-30T02:21:22;4.90;;;3.73;;
21183;SDS011;18176;49.502;11.754;2022-09-30T02:25:31;6.23;;;4.27;;
21183;SDS011;18176;49.502;11.754;2022-09-30T02:29:35;7.00;;;3.57;;
21183;SDS011;18176;49.502;11.754;2022-09-30T02:33:38;5.67;;;3.80;;
21183;SDS011;18176;49.502;11.754;2022-09-30T02:37:44;5.93;;;4.00;;
21183;SDS011;18176;49.502;11.754;2022-09-30T02:41:50;5.13;;;3.70;;
21183;SDS011;18176;49.502;11.754;2022-09-30T02:51:11;6.23;;;4.17;;
21183;SDS011;18176;49.502;11.754;2022-09-30T02:55:26;6.17;;;4.20;;
21183;SDS011;18176;49.502;11.754;2022-09-30T02:59:55;9.53;;;4.63;;
21183;SDS011;18176;49.502;11.754;2022-09-30T03:03:53;6.43;;;4.60;;
21183;SDS011;18176;49.502;11.754;2022-09-30T03:08:03;7.33;;;4.20;;
21183;SDS011;18176;49.502;11.754;2022-09-30T03:12:18;6.57;;;4.27;;
21183;SDS011;18176;49.502;11.754;2022-09-30T03:25:36;7.50;;;4.40;;
21183;SDS011;18176;49.502;11.754;2022-09-30T03:43:32;13.97;;;3.37;;
21183;SDS011;18176;49.502;11.754;2022-09-30T03:47:46;16.23;;;3.40;;
21183;SDS011;18176;49.502;11.754;2022-09-30T03:51:49;14.07;;;3.50;;
21183;SDS011;18176;49.502;11.754;2022-09-30T03:55:47;4.13;;;3.20;;
21183;SDS011;18176;49.502;11.754;2022-09-30T03:59:48;4.40;;;3.60;;
21183;SDS011;18176;49.502;11.754;2022-09-30T04:03:49;4.17;;;3.10;;
21183;SDS011;18176;49.502;11.754;2022-09-30T04:07:48;3.57;;;2.70;;
21183;SDS011;18176;49.502;11.754;2022-09-30T04:11:45;3.87;;;3.37;;
21183;SDS011;18176;49.502;11.754;2022-09-30T04:15:42;5.70;;;3.40;;
21183;SDS011;18176;49.502;11.754;2022-09-30T04:19:39;3.60;;;3.20;;
21183;SDS011;18176;49.502;11.754;2022-09-30T04:23:37;5.73;;;3.50;;
21183;SDS011;18176;49.502;11.754;2022-09-30T04:27:37;3.73;;;3.33;;
21183;SDS011;18176;49.502;11.754;2022-09-30T04:31:34;6.47;;;3.67;;
21183;SDS011;18176;49.502;11.754;2022-09-30T04:35:31;7.53;;;3.43;;
21183;SDS011;18176;49.502;11.754;2022-09-30T04:39:28;7.47;;;4.07;;
21183;SDS011;18176;49.502;11.754;2022-09-30T04:43:25;4.77;;;3.63;;
21183;SDS011;18176;49.502;11.754;2022-09-30T04:47:22;8.47;;;3.90;;
21183;SDS011;18176;49.502;11.754;2022-09-30T04:51:20;5.23;;;4.40;;
21183;SDS011;18176;49.502;11.754;2022-09-30T04:55:17;5.73;;;4.40;;
21183;SDS011;18176;49.502;11.754;2022-09-30T04:59:14;5.77;;;4.10;;
21183;SDS011;18176;49.502;11.754;2022-09-30T05:03:11;6.30;;;4.27;;
21183;SDS011;18176;49.502;11.754;2022-09-30T05:07:08;7.20;;;4.40;;
21183;SDS011;18176;49.502;11.754;2022-09-30T05:11:06;9.23;;;5.87;;
21183;SDS011;18176;49.502;11.754;2022-09-30T05:15:05;10.60;;;5.57;;
21183;SDS011;18176;49.502;11.754;2022-09-30T05:19:03;6.17;;;4.40;;
21183;SDS011;18176;49.502;11.754;2022-09-30T05:23:00;9.77;;;5.17;;
21183;SDS011;18176;49.502;11.754;2022-09-30T05:26:57;11.67;;;7.10;;
21183;SDS011;18176;49.502;11.754;2022-09-30T05:30:55;8.50;;;6.40;;
21183;SDS011;18176;49.502;11.754;2022-09-30T05:34:55;8.43;;;5.93;;
21183;SDS011;18176;49.502;11.754;2022-09-30T05:38:52;9.53;;;5.47;;
21183;SDS011;18176;49.502;11.754;2022-09-30T05:42:49;9.97;;;6.03;;
21183;SDS011;18176;49.502;11.754;2022-09-30T05:46:47;8.57;;;5.93;;
21183;SDS011;18176;49.502;11.754;2022-09-30T05:50:44;19.10;;;12.13;;
21183;SDS011;18176;49.502;11.754;2022-09-30T05:54:43;13.73;;;7.57;;
21183;SDS011;18176;49.502;11.754;2022-09-30T05:58:40;8.10;;;5.90;;
21183;SDS011;18176;49.502;11.754;2022-09-30T06:02:37;6.40;;;5.23;;
21183;SDS011;18176;49.502;11.754;2022-09-30T06:06:35;11.37;;;5.40;;
21183;SDS011;18176;49.502;11.754;2022-09-30T06:10:32;8.07;;;4.50;;
21183;SDS011;18176;49.502;11.754;2022-09-30T06:14:31;9.43;;;4.50;;
21183;SDS011;18176;49.502;11.754;2022-09-30T06:18:28;7.07;;;4.23;;
21183;SDS011;18176;49.502;11.754;2022-09-30T06:22:26;7.63;;;5.30;;
21183;SDS011;18176;49.502;11.754;2022-09-30T06:26:23;8.47;;;4.47;;
21183;SDS011;18176;49.502;11.754;2022-09-30T06:30:21;9.50;;;6.07;;
21183;SDS011;18176;49.502;11.754;2022-09-30T06:34:20;8.30;;;5.30;;
21183;SDS011;18176;49.502;11.754;2022-09-30T06:38:17;6.03;;;4.63;;
21183;SDS011;18176;49.502;11.754;2022-09-30T06:42:16;5.90;;;4.60;;
21183;SDS011;18176;49.502;11.754;2022-09-30T06:46:14;5.53;;;4.50;;
21183;SDS011;18176;49.502;11.754;2022-09-30T06:50:20;5.73;;;4.83;;
21183;SDS011;18176;49.502;11.754;2022-09-30T06:54:21;10.90;;;5.03;;
21183;SDS011;18176;49.502;11.754;2022-09-30T06:58:18;6.80;;;4.73;;
21183;SDS011;18176;49.502;11.754;2022-09-30T07:02:16;6.07;;;4.67;;
21183;SDS011;18176;49.502;11.754;2022-09-30T07:06:16;6.83;;;5.47;;
21183;SDS011;18176;49.502;11.754;2022-09-30T07:10:13;6.07;;;4.50;;
21183;SDS011;18176;49.502;11.754;2022-09-30T07:14:11;8.07;;;4.90;;
21183;SDS011;18176;49.502;11.754;2022-09-30T07:18:08;6.67;;;4.90;;
21183;SDS011;18176;49.502;11.754;2022-09-30T07:22:05;9.10;;;5.83;;
21183;SDS011;18176;49.502;11.754;2022-09-30T07:26:22;9.50;;;4.80;;
21183;SDS011;18176;49.502;11.754;2022-09-30T07:30:20;8.67;;;5.07;;
21183;SDS011;18176;49.502;11.754;2022-09-30T07:34:22;5.90;;;4.50;;
21183;SDS011;18176;49.502;11.754;2022-09-30T07:38:20;9.00;;;4.97;;
21183;SDS011;18176;49.502;11.754;2022-09-30T07:42:20;5.87;;;4.60;;
21183;SDS011;18176;49.502;11.754;2022-09-30T07:46:20;10.67;;;4.93;;
21183;SDS011;18176;49.502;11.754;2022-09-30T07:50:25;7.43;;;5.07;;
21183;SDS011;18176;49.502;11.754;2022-09-30T07:54:23;7.77;;;4.63;;
21183;SDS011;18176;49.502;11.754;2022-09-30T07:58:26;8.27;;;4.77;;
21183;SDS011;18176;49.502;11.754;2022-09-30T08:02:23;9.07;;;5.93;;
21183;SDS011;18176;49.502;11.754;2022-09-30T08:06:20;12.83;;;6.40;;
21183;SDS011;18176;49.502;11.754;2022-09-30T08:10:19;14.13;;;8.27;;
21183;SDS011;18176;49.502;11.754;2022-09-30T08:14:35;7.70;;;5.13;;
21183;SDS011;18176;49.502;11.754;2022-09-30T08:18:33;9.10;;;5.17;;
21183;SDS011;18176;49.502;11.754;2022-09-30T08:22:30;7.23;;;4.70;;
21183;SDS011;18176;49.502;11.754;2022-09-30T08:26:27;7.37;;;4.40;;
21183;SDS011;18176;49.502;11.754;2022-09-30T08:30:25;9.33;;;4.40;;
21183;SDS011;18176;49.502;11.754;2022-09-30T08:34:22;10.93;;;6.75;;
21183;SDS011;18176;49.502;11.754;2022-09-30T08:38:20;9.48;;;5.00;;
21183;SDS011;18176;49.502;11.754;2022-09-30T08:42:29;9.23;;;4.82;;
21183;SDS011;18176;49.502;11.754;2022-09-30T08:46:47;8.15;;;5.53;;
21183;SDS011;18176;49.502;11.754;2022-09-30T08:51:20;8.20;;;6.40;;
21183;SDS011;18176;49.502;11.754;2022-09-30T08:55:42;8.68;;;6.55;;
21183;SDS011;18176;49.502;11.754;2022-09-30T08:59:43;12.82;;;6.30;;
21183;SDS011;18176;49.502;11.754;2022-09-30T09:03:50;6.95;;;5.18;;
21183;SDS011;18176;49.502;11.754;2022-09-30T09:08:00;6.88;;;5.50;;
21183;SDS011;18176;49.502;11.754;2022-09-30T09:16:41;7.95;;;4.70;;
21183;SDS011;18176;49.502;11.754;2022-09-30T09:25:27;3.15;;;2.50;;
21183;SDS011;18176;49.502;11.754;2022-09-30T09:33:42;4.25;;;3.13;;
21183;SDS011;18176;49.502;11.754;2022-09-30T09:42:30;5.38;;;4.30;;
21183;SDS011;18176;49.502;11.754;2022-09-30T09:47:09;4.85;;;4.10;;
21183;SDS011;18176;49.502;11.754;2022-09-30T09:51:27;5.95;;;3.60;;
21183;SDS011;18176;49.502;11.754;2022-09-30T09:55:32;4.63;;;3.30;;
21183;SDS011;18176;49.502;11.754;2022-09-30T09:59:30;4.00;;;3.45;;
21183;SDS011;18176;49.502;11.754;2022-09-30T10:03:28;4.32;;;3.03;;
21183;SDS011;18176;49.502;11.754;2022-09-30T10:07:26;3.80;;;3.00;;
21183;SDS011;18176;49.502;11.754;2022-09-30T10:11:26;3.83;;;3.00;;
21183;SDS011;18176;49.502;11.754;2022-09-30T10:15:24;5.30;;;3.40;;
21183;SDS011;18176;49.502;11.754;2022-09-30T10:19:26;4.18;;;3.08;;
21183;SDS011;18176;49.502;11.754;2022-09-30T10:23:34;4.35;;;3.40;;
21183;SDS011;18176;49.502;11.754;2022-09-30T10:27:35;3.97;;;2.70;;
21183;SDS011;18176;49.502;11.754;2022-09-30T10:31:51;5.65;;;3.30;;
21183;SDS011;18176;49.502;11.754;2022-09-30T10:40:14;6.07;;;4.32;;
21183;SDS011;18176;49.502;11.754;2022-09-30T10:44:15;8.43;;;5.68;;
21183;SDS011;18176;49.502;11.754;2022-09-30T10:48:17;5.30;;;4.25;;
21183;SDS011;18176;49.502;11.754;2022-09-30T10:52:21;5.22;;;4.05;;
21183;SDS011;18176;49.502;11.754;2022-09-30T10:56:42;6.97;;;3.53;;
21183;SDS011;18176;49.502;11.754;2022-09-30T11:00:41;4.13;;;3.55;;
21183;SDS011;18176;49.502;11.754;2022-09-30T11:04:40;6.10;;;3.72;;
21183;SDS011;18176;49.502;11.754;2022-09-30T11:08:48;4.85;;;3.10;;
21183;SDS011;18176;49.502;11.754;2022-09-30T11:17:24;4.38;;;2.80;;
21183;SDS011;18176;49.502;11.754;2022-09-30T11:21:40;5.80;;;2.67;;
21183;SDS011;18176;49.502;11.754;2022-09-30T11:25:58;5.43;;;2.88;;
21183;SDS011;18176;49.502;11.754;2022-09-30T11:39:00;5.57;;;2.80;;
21183;SDS011;18176;49.502;11.754;2022-09-30T11:52:06;2.67;;;2.22;;
21183;SDS011;18176;49.502;11.754;2022-09-30T11:56:55;4.00;;;2.20;;
21183;SDS011;18176;49.502;11.754;2022-09-30T12:01:17;2.63;;;1.60;;
21183;SDS011;18176;49.502;11.754;2022-09-30T12:05:28;1.80;;;1.70;;
21183;SDS011;18176;49.502;11.754;2022-09-30T12:09:43;4.88;;;1.90;;
21183;SDS011;18176;49.502;11.754;2022-09-30T12:13:52;2.10;;;1.90;;
21183;SDS011;18176;49.502;11.754;2022-09-30T12:18:00;2.00;;;1.80;;
21183;SDS011;18176;49.502;11.754;2022-09-30T12:22:13;2.55;;;1.90;;
21183;SDS011;18176;49.502;11.754;2022-09-30T12:26:36;1.27;;;1.17;;
21183;SDS011;18176;49.502;11.754;2022-09-30T12:30:37;1.83;;;1.30;;
21183;SDS011;18176;49.502;11.754;2022-09-30T12:44:03;2.33;;;1.30;;
21183;SDS011;18176;49.502;11.754;2022-09-30T12:48:48;2.25;;;1.60;;
21183;SDS011;18176;49.502;11.754;2022-09-30T12:52:55;2.05;;;1.60;;
21183;SDS011;18176;49.502;11.754;2022-09-30T12:56:56;2.90;;;1.80;;
21183;SDS011;18176;49.502;11.754;2022-09-30T13:01:00;3.28;;;1.40;;
21183;SDS011;18176;49.502;11.754;2022-09-30T13:13:27;3.15;;;1.70;;
21183;SDS011;18176;49.502;11.754;2022-09-30T13:17:28;2.20;;;1.58;;
21183;SDS011;18176;49.502;11.754;2022-09-30T13:21:25;4.55;;;1.52;;
21183;SDS011;18176;49.502;11.754;2022-09-30T13:25:22;2.30;;;1.50;;
21183;SDS011;18176;49.502;11.754;2022-09-30T13:33:27;1.70;;;1.55;;
21183;SDS011;18176;49.502;11.754;2022-09-30T13:37:37;2.03;;;1.48;;
21183;SDS011;18176;49.502;11.754;2022-09-30T13:41:35;4.18;;;2.10;;
21183;SDS011;18176;49.502;11.754;2022-09-30T13:45:35;2.05;;;1.40;;
21183;SDS011;18176;49.502;11.754;2022-09-30T13:49:51;2.40;;;1.60;;
21183;SDS011;18176;49.502;11.754;2022-09-30T13:54:34;1.90;;;1.40;;
21183;SDS011;18176;49.502;11.754;2022-09-30T14:03:21;1.55;;;1.42;;
21183;SDS011;18176;49.502;11.754;2022-09-30T14:08:13;2.75;;;1.67;;
21183;SDS011;18176;49.502;11.754;2022-09-30T14:17:40;2.28;;;1.50;;
21183;SDS011;18176;49.502;11.754;2022-09-30T14:22:18;1.80;;;1.58;;
21183;SDS011;18176;49.502;11.754;2022-09-30T14:26:37;2.15;;;1.50;;
21183;SDS011;18176;49.502;11.754;2022-09-30T14:30:45;1.77;;;1.40;;
21183;SDS011;18176;49.502;11.754;2022-09-30T14:35:04;4.22;;;1.65;;
21183;SDS011;18176;49.502;11.754;2022-09-30T14:39:04;3.15;;;1.65;;
21183;SDS011;18176;49.502;11.754;2022-09-30T14:43:13;3.30;;;1.75;;
21183;SDS011;18176;49.502;11.754;2022-09-30T14:47:17;2.50;;;1.73;;
21183;SDS011;18176;49.502;11.754;2022-09-30T14:51:16;3.03;;;2.20;;
21183;SDS011;18176;49.502;11.754;2022-09-30T14:55:20;2.90;;;2.10;;
21183;SDS011;18176;49.502;11.754;2022-09-30T14:59:28;2.30;;;2.10;;
21183;SDS011;18176;49.502;11.754;2022-09-30T15:03:31;8.38;;;4.95;;
21183;SDS011;18176;49.502;11.754;2022-09-30T15:07:40;2.75;;;2.38;;
21183;SDS011;18176;49.502;11.754;2022-09-30T15:11:37;7.13;;;2.30;;
21183;SDS011;18176;49.502;11.754;2022-09-30T15:15:36;3.92;;;3.60;;
21183;SDS011;18176;49.502;11.754;2022-09-30T15:19:33;4.00;;;3.03;;
21183;SDS011;18176;49.502;11.754;2022-09-30T15:23:41;4.72;;;2.20;;
21183;SDS011;18176;49.502;11.754;2022-09-30T15:27:44;7.00;;;6.30;;
21183;SDS011;18176;49.502;11.754;2022-09-30T15:31:50;2.83;;;2.53;;
21183;SDS011;18176;49.502;11.754;2022-09-30T15:36:11;3.35;;;1.83;;
21183;SDS011;18176;49.502;11.754;2022-09-30T15:40:13;3.75;;;2.60;;
21183;SDS011;18176;49.502;11.754;2022-09-30T15:44:37;3.88;;;3.00;;
21183;SDS011;18176;49.502;11.754;2022-09-30T15:48:35;3.72;;;2.20;;
21183;SDS011;18176;49.502;11.754;2022-09-30T15:52:40;5.80;;;3.15;;
21183;SDS011;18176;49.502;11.754;2022-09-30T15:56:37;7.82;;;3.55;;
21183;SDS011;18176;49.502;11.754;2022-09-30T16:00:36;5.05;;;4.28;;
21183;SDS011;18176;49.502;11.754;2022-09-30T16:04:37;4.95;;;3.28;;
21183;SDS011;18176;49.502;11.754;2022-09-30T16:08:45;11.38;;;8.52;;
21183;SDS011;18176;49.502;11.754;2022-09-30T16:12:54;7.68;;;4.15;;
21183;SDS011;18176;49.502;11.754;2022-09-30T16:17:00;31.80;;;21.48;;
21183;SDS011;18176;49.502;11.754;2022-09-30T16:21:01;10.52;;;8.00;;
21183;SDS011;18176;49.502;11.754;2022-09-30T16:29:19;7.22;;;4.40;;
21183;SDS011;18176;49.502;11.754;2022-09-30T16:33:16;5.03;;;3.58;;
21183;SDS011;18176;49.502;11.754;2022-09-30T16:37:14;12.80;;;6.55;;
21183;SDS011;18176;49.502;11.754;2022-09-30T16:41:15;17.85;;;11.82;;
21183;SDS011;18176;49.502;11.754;2022-09-30T16:45:12;19.65;;;12.18;;
21183;SDS011;18176;49.502;11.754;2022-09-30T16:49:17;21.88;;;11.80;;
21183;SDS011;18176;49.502;11.754;2022-09-30T16:53:15;62.47;;;41.58;;
21183;SDS011;18176;49.502;11.754;2022-09-30T16:57:13;15.07;;;11.13;;
21183;SDS011;18176;49.502;11.754;2022-09-30T17:01:15;12.65;;;7.03;;
21183;SDS011;18176;49.502;11.754;2022-09-30T17:05:19;19.77;;;10.80;;
21183;SDS011;18176;49.502;11.754;2022-09-30T17:09:19;14.70;;;10.70;;
21183;SDS011;18176;49.502;11.754;2022-09-30T17:13:17;18.17;;;11.93;;
21183;SDS011;18176;49.502;11.754;2022-09-30T17:17:14;16.47;;;13.50;;
21183;SDS011;18176;49.502;11.754;2022-09-30T17:21:11;14.60;;;10.63;;
21183;SDS011;18176;49.502;11.754;2022-09-30T17:25:12;10.73;;;8.10;;
21183;SDS011;18176;49.502;11.754;2022-09-30T17:29:10;9.30;;;7.27;;
21183;SDS011;18176;49.502;11.754;2022-09-30T17:33:33;12.00;;;7.00;;
21183;SDS011;18176;49.502;11.754;2022-09-30T17:37:33;9.63;;;6.30;;
21183;SDS011;18176;49.502;11.754;2022-09-30T17:41:35;16.63;;;10.43;;
21183;SDS011;18176;49.502;11.754;2022-09-30T17:45:50;13.57;;;8.90;;
21183;SDS011;18176;49.502;11.754;2022-09-30T17:49:50;18.27;;;11.00;;
21183;SDS011;18176;49.502;11.754;2022-09-30T17:53:50;16.67;;;11.73;;
21183;SDS011;18176;49.502;11.754;2022-09-30T17:57:47;18.60;;;11.10;;
21183;SDS011;18176;49.502;11.754;2022-09-30T18:01:45;12.53;;;8.70;;
21183;SDS011;18176;49.502;11.754;2022-09-30T18:05:46;13.47;;;9.47;;
21183;SDS011;18176;49.502;11.754;2022-09-30T18:09:43;13.60;;;8.60;;
21183;SDS011;18176;49.502;11.754;2022-09-30T18:13:40;11.67;;;8.93;;
21183;SDS011;18176;49.502;11.754;2022-09-30T18:17:37;16.37;;;12.20;;
21183;SDS011;18176;49.502;11.754;2022-09-30T18:21:35;15.00;;;10.43;;
21183;SDS011;18176;49.502;11.754;2022-09-30T18:25:33;13.17;;;9.93;;
21183;SDS011;18176;49.502;11.754;2022-09-30T18:29:30;14.77;;;10.77;;
21183;SDS011;18176;49.502;11.754;2022-09-30T18:33:27;12.63;;;9.43;;
21183;SDS011;18176;49.502;11.754;2022-09-30T18:37:24;17.40;;;10.90;;
21183;SDS011;18176;49.502;11.754;2022-09-30T18:41:25;15.57;;;10.47;;
21183;SDS011;18176;49.502;11.754;2022-09-30T18:45:26;20.77;;;14.47;;
21183;SDS011;18176;49.502;11.754;2022-09-30T18:49:26;20.13;;;14.40;;
21183;SDS011;18176;49.502;11.754;2022-09-30T18:53:23;21.30;;;15.50;;
21183;SDS011;18176;49.502;11.754;2022-09-30T18:57:20;19.77;;;12.27;;
21183;SDS011;18176;49.502;11.754;2022-09-30T19:01:18;128.37;;;56.87;;
21183;SDS011;18176;49.502;11.754;2022-09-30T19:05:16;102.20;;;47.77;;
21183;SDS011;18176;49.502;11.754;2022-09-30T19:09:13;32.37;;;16.20;;
21183;SDS011;18176;49.502;11.754;2022-09-30T19:13:11;20.87;;;15.50;;
21183;SDS011;18176;49.502;11.754;2022-09-30T19:17:12;20.33;;;11.73;;
21183;SDS011;18176;49.502;11.754;2022-09-30T19:21:11;18.27;;;12.30;;
21183;SDS011;18176;49.502;11.754;2022-09-30T19:25:11;15.37;;;11.90;;
21183;SDS011;18176;49.502;11.754;2022-09-30T19:29:11;15.93;;;12.47;;
21183;SDS011;18176;49.502;11.754;2022-09-30T19:33:08;18.90;;;13.50;;
21183;SDS011;18176;49.502;11.754;2022-09-30T19:37:05;19.70;;;14.30;;
21183;SDS011;18176;49.502;11.754;2022-09-30T19:41:16;20.13;;;13.63;;
21183;SDS011;18176;49.502;11.754;2022-09-30T19:45:14;20.73;;;12.30;;
21183;SDS011;18176;49.502;11.754;2022-09-30T19:49:12;21.23;;;12.77;;
21183;SDS011;18176;49.502;11.754;2022-09-30T19:53:10;29.73;;;17.17;;
21183;SDS011;18176;49.502;11.754;2022-09-30T19:57:21;31.00;;;18.27;;
21183;SDS011;18176;49.502;11.754;2022-09-30T20:01:20;22.73;;;12.90;;
21183;SDS011;18176;49.502;11.754;2022-09-30T20:05:19;22.67;;;13.20;;
21183;SDS011;18176;49.502;11.754;2022-09-30T20:09:18;16.20;;;10.27;;
21183;SDS011;18176;49.502;11.754;2022-09-30T20:13:15;13.53;;;9.30;;
21183;SDS011;18176;49.502;11.754;2022-09-30T20:17:13;12.13;;;7.70;;
21183;SDS011;18176;49.502;11.754;2022-09-30T20:21:13;13.87;;;7.23;;
21183;SDS011;18176;49.502;11.754;2022-09-30T20:25:12;14.53;;;9.23;;
21183;SDS011;18176;49.502;11.754;2022-09-30T20:29:09;16.33;;;9.27;;
21183;SDS011;18176;49.502;11.754;2022-09-30T20:33:07;16.33;;;9.87;;
21183;SDS011;18176;49.502;11.754;2022-09-30T20:37:04;17.83;;;10.23;;
21183;SDS011;18176;49.502;11.754;2022-09-30T20:41:02;9.77;;;7.13;;
21183;SDS011;18176;49.502;11.754;2022-09-30T20:44:59;14.97;;;8.53;;
21183;SDS011;18176;49.502;11.754;2022-09-30T20:48:58;12.60;;;7.07;;
21183;SDS011;18176;49.502;11.754;2022-09-30T20:52:57;9.87;;;6.90;;
21183;SDS011;18176;49.502;11.754;2022-09-30T20:56:54;10.93;;;6.80;;
21183;SDS011;18176;49.502;11.754;2022-09-30T21:01:03;9.53;;;6.07;;
21183;SDS011;18176;49.502;11.754;2022-09-30T21:05:05;12.97;;;7.23;;
21183;SDS011;18176;49.502;11.754;2022-09-30T21:09:03;14.60;;;8.60;;
21183;SDS011;18176;49.502;11.754;2022-09-30T21:13:00;17.60;;;9.00;;
21183;SDS011;18176;49.502;11.754;2022-09-30T21:17:03;15.10;;;9.63;;
21183;SDS011;18176;49.502;11.754;2022-09-30T21:21:01;13.87;;;8.67;;
21183;SDS011;18176;49.502;11.754;2022-09-30T21:24:59;12.43;;;8.20;;
21183;SDS011;18176;49.502;11.754;2022-09-30T21:28:57;16.60;;;8.07;;
21183;SDS011;18176;49.502;11.754;2022-09-30T21:32:55;17.43;;;10.93;;
21183;SDS011;18176;49.502;11.754;2022-09-30T21:36:52;14.27;;;8.73;;
21183;SDS011;18176;49.502;11.754;2022-09-30T21:40:49;15.43;;;8.43;;
21183;SDS011;18176;49.502;11.754;2022-09-30T21:44:53;10.77;;;7.13;;
21183;SDS011;18176;49.502;11.754;2022-09-30T21:48:50;9.50;;;6.23;;
21183;SDS011;18176;49.502;11.754;2022-09-30T21:53:00;9.50;;;6.23;;
21183;SDS011;18176;49.502;11.754;2022-09-30T21:56:58;10.50;;;6.73;;
21183;SDS011;18176;49.502;11.754;2022-09-30T22:00:55;13.47;;;7.43;;
21183;SDS011;18176;49.502;11.754;2022-09-30T22:04:56;10.37;;;6.90;;
21183;SDS011;18176;49.502;11.754;2022-09-30T22:08:53;10.30;;;6.27;;
21183;SDS011;18176;49.502;11.754;2022-09-30T22:12:50;8.90;;;6.10;;
21183;SDS011;18176;49.502;11.754;2022-09-30T22:16:47;9.00;;;6.20;;
21183;SDS011;18176;49.502;11.754;2022-09-30T22:20:44;9.73;;;6.23;;
21183;SDS011;18176;49.502;11.754;2022-09-30T22:24:43;10.47;;;6.87;;
21183;SDS011;18176;49.502;11.754;2022-09-30T22:28:40;9.30;;;6.67;;
21183;SDS011;18176;49.502;11.754;2022-09-30T22:32:37;11.53;;;7.03;;
21183;SDS011;18176;49.502;11.754;2022-09-30T22:36:34;15.97;;;8.67;;
21183;SDS011;18176;49.502;11.754;2022-09-30T22:40:51;15.33;;;9.37;;
21183;SDS011;18176;49.502;11.754;2022-09-30T22:44:51;8.63;;;6.47;;
21183;SDS011;18176;49.502;11.754;2022-09-30T22:48:48;10.23;;;6.20;;
21183;SDS011;18176;49.502;11.754;2022-09-30T22:52:46;8.93;;;6.10;;
21183;SDS011;18176;49.502;11.754;2022-09-30T22:56:45;9.27;;;6.00;;
21183;SDS011;18176;49.502;11.754;2022-09-30T23:00:52;7.87;;;5.90;;
21183;SDS011;18176;49.502;11.754;2022-09-30T23:04:51;9.13;;;5.73;;
21183;SDS011;18176;49.502;11.754;2022-09-30T23:08:49;8.13;;;5.67;;
21183;SDS011;18176;49.502;11.754;2022-09-30T23:12:47;8.63;;;5.30;;
21183;SDS011;18176;49.502;11.754;2022-09-30T23:16:46;10.83;;;6.10;;
21183;SDS011;18176;49.502;11.754;2022-09-30T23:20:57;6.83;;;5.30;;
21183;SDS011;18176;49.502;11.754;2022-09-30T23:24:57;7.43;;;5.33;;
21183;SDS011;18176;49.502;11.754;2022-09-30T23:28:59;8.80;;;5.23;;
21183;SDS011;18176;49.502;11.754;2022-09-30T23:33:01;8.20;;;5.30;;
21183;SDS011;18176;49.502;11.754;2022-09-30T23:36:58;12.10;;;6.30;;
21183;SDS011;18176;49.502;11.754;2022-09-30T23:40:58;11.70;;;6.43;;
21183;SDS011;18176;49.502;11.754;2022-09-30T23:44:55;9.77;;;6.10;;
21183;SDS011;18176;49.502;11.754;2022-09-30T23:48:52;11.97;;;7.00;;
21183;SDS011;18176;49.502;11.754;2022-09-30T23:52:49;8.50;;;5.87;;
21183;SDS011;18176;49.502;11.754;2022-09-30T23:56:46;8.50;;;6.00;;
